Terminal Aerodrome Forecast
Issued by NWS Mt. Holly, NJ

Home | Current Version | Previous Version | Text Only | Print | Product List | Glossary On
Versions: 1 2 3 4 5 6 7 8 9 10 11 12 13 14 15
000
FTUS41 KPHI 221700
TAFILG
TAF
KILG 221737Z 2218/2318 08008KT P6SM SCT020 OVC040
      TEMPO 2219/2221 6SM -RA BR BKN020 OVC035
     FM222100 07005KT 6SM -RA BKN020 OVC035
     FM230000 07005KT 4SM -RA BR BKN006 OVC015
     FM230500 06007KT 2SM -RA BR OVC004
     FM231700 10005KT 5SM BR OVC006=

USA.gov is the U.S. government's official web portal to all federal, state and local government web resources and services.